Time;durP1;ratioP1;P1;durP2;ratioP2;P2;SDS_P1;SDS_P2;PMS_P1;PMS_P2;Temp;Humidity;BMP_temperature;BMP_pressure;BME280_temperature;BME280_humidity;BME280_pressure;Samples;Min_cycle;Max_cycle;Signal;HPM_P1;HPM_P2
2023/09/16 00:00:21;;;;;;;4.20;2.40;;;;;;;;;;4993048;28;20229;-80
2023/09/16 00:02:49;;;;;;;2.67;2.20;;;;;;;;;;4993184;28;20202;-79
2023/09/16 00:05:17;;;;;;;3.60;2.20;;;;;;;;;;4993063;28;20691;-80
2023/09/16 00:07:45;;;;;;;3.80;2.28;;;;;;;;;;4993247;28;20208;-79
2023/09/16 00:10:13;;;;;;;4.18;2.20;;;;;;;;;;4993413;28;20256;-80
2023/09/16 00:12:40;;;;;;;3.40;2.03;;;;;;;;;;4992904;28;20229;-79
2023/09/16 00:15:07;;;;;;;5.00;2.40;;;;;;;;;;4993425;28;20272;-80
2023/09/16 00:17:35;;;;;;;2.55;2.20;;;;;;;;;;4993037;28;20206;-79
2023/09/16 00:20:04;;;;;;;4.32;2.20;;;;;;;;;;4993034;28;20739;-80
2023/09/16 00:22:37;;;;;;;5.25;2.15;;;;;;;;;;4992791;28;20699;-80
2023/09/16 00:25:08;;;;;;;3.25;2.30;;;;;;;;;;4993430;28;20201;-80
2023/09/16 00:27:35;;;;;;;2.47;2.17;;;;;;;;;;4992946;28;20220;-80
2023/09/16 00:30:04;;;;;;;4.38;2.20;;;;;;;;;;4993364;28;20241;-80
2023/09/16 00:32:31;;;;;;;5.82;2.70;;;;;;;;;;4993350;28;20198;-80
2023/09/16 00:34:59;;;;;;;4.10;2.30;;;;;;;;;;4993171;28;20339;-80
2023/09/16 00:37:26;;;;;;;4.15;2.60;;;;;;;;;;4992603;28;20280;-79
2023/09/16 00:39:53;;;;;;;3.75;2.50;;;;;;;;;;4992787;28;20198;-80
2023/09/16 00:42:22;;;;;;;3.67;2.00;;;;;;;;;;4992677;28;20660;-79
2023/09/16 00:44:49;;;;;;;3.13;2.20;;;;;;;;;;4993190;28;20248;-80
2023/09/16 00:47:16;;;;;;;2.72;2.28;;;;;;;;;;4992579;28;20582;-79
2023/09/16 00:49:44;;;;;;;3.40;2.42;;;;;;;;;;4992829;28;20285;-80
2023/09/16 00:52:14;;;;;;;5.18;2.55;;;;;;;;;;4992466;28;20225;-80
2023/09/16 00:54:41;;;;;;;2.58;2.20;;;;;;;;;;4992412;28;20232;-80
2023/09/16 00:57:11;;;;;;;3.90;2.35;;;;;;;;;;4992110;28;20738;-80
2023/09/16 00:59:39;;;;;;;3.63;2.70;;;;;;;;;;4992461;28;20198;-80
2023/09/16 01:02:08;;;;;;;2.88;2.30;;;;;;;;;;4992468;28;20281;-80
2023/09/16 01:04:35;;;;;;;3.90;2.30;;;;;;;;;;4992181;28;20205;-80
2023/09/16 01:07:03;;;;;;;3.58;2.33;;;;;;;;;;4993007;28;20265;-79
2023/09/16 01:09:31;;;;;;;4.25;2.38;;;;;;;;;;4992060;28;20204;-79
2023/09/16 01:11:58;;;;;;;3.65;2.40;;;;;;;;;;4991818;28;20672;-79
2023/09/16 01:14:25;;;;;;;4.00;2.35;;;;;;;;;;4993793;28;20679;-80
2023/09/16 01:16:58;;;;;;;3.03;2.10;;;;;;;;;;4991022;28;20201;-80
2023/09/16 01:19:30;;;;;;;3.47;2.55;;;;;;;;;;4982311;28;20201;-80
2023/09/16 01:21:57;;;;;;;5.45;2.58;;;;;;;;;;4991799;28;20668;-80
2023/09/16 01:24:24;;;;;;;4.10;2.70;;;;;;;;;;4992203;28;20643;-81
2023/09/16 01:26:53;;;;;;;3.75;2.70;;;;;;;;;;4991699;28;20229;-79
2023/09/16 01:29:22;;;;;;;3.50;2.45;;;;;;;;;;4992238;28;20229;-79
2023/09/16 01:31:49;;;;;;;4.35;2.70;;;;;;;;;;4992373;28;20202;-79
2023/09/16 01:34:21;;;;;;;4.82;2.50;;;;;;;;;;4991648;28;20248;-80
2023/09/16 01:36:51;;;;;;;3.03;2.60;;;;;;;;;;4992171;28;20202;-79
2023/09/16 01:39:18;;;;;;;5.38;2.35;;;;;;;;;;4992387;28;20378;-80
2023/09/16 01:41:46;;;;;;;3.30;2.25;;;;;;;;;;4991315;28;20224;-80
2023/09/16 01:44:15;;;;;;;3.55;2.38;;;;;;;;;;4992037;28;20289;-79
2023/09/16 01:46:42;;;;;;;3.40;2.10;;;;;;;;;;4991824;28;20288;-80
2023/09/16 01:49:09;;;;;;;3.80;2.30;;;;;;;;;;4991903;28;20660;-79
2023/09/16 01:51:37;;;;;;;2.72;2.20;;;;;;;;;;4993903;28;20198;-80
2023/09/16 01:54:04;;;;;;;3.67;2.60;;;;;;;;;;4995447;28;20241;-80
2023/09/16 01:56:31;;;;;;;3.70;2.30;;;;;;;;;;4995704;28;20229;-80
2023/09/16 01:58:59;;;;;;;4.10;2.40;;;;;;;;;;4995809;28;20289;-80
2023/09/16 02:01:27;;;;;;;3.67;2.30;;;;;;;;;;4996024;28;20233;-79
2023/09/16 02:03:56;;;;;;;2.70;2.40;;;;;;;;;;4995677;28;20317;-80
2023/09/16 02:06:23;;;;;;;2.67;2.33;;;;;;;;;;4995716;28;20224;-80
2023/09/16 02:08:51;;;;;;;3.00;2.15;;;;;;;;;;4995019;28;20197;-79
2023/09/16 02:11:18;;;;;;;3.33;1.90;;;;;;;;;;4995918;28;20672;-80
2023/09/16 02:13:45;;;;;;;2.85;2.20;;;;;;;;;;4995629;28;20285;-80
2023/09/16 02:16:13;;;;;;;2.85;2.30;;;;;;;;;;4995334;28;20233;-80
2023/09/16 02:18:41;;;;;;;2.40;2.20;;;;;;;;;;4995481;28;20256;-79
2023/09/16 02:21:09;;;;;;;4.10;2.40;;;;;;;;;;4995323;28;20913;-79
2023/09/16 02:23:36;;;;;;;3.42;2.50;;;;;;;;;;4994859;28;20229;-79
2023/09/16 02:26:03;;;;;;;3.67;2.30;;;;;;;;;;4995931;28;20293;-79
2023/09/16 02:28:30;;;;;;;2.65;2.17;;;;;;;;;;4995783;28;20293;-80
2023/09/16 02:30:58;;;;;;;2.58;2.35;;;;;;;;;;4994808;28;20289;-80
2023/09/16 02:33:25;;;;;;;2.33;2.13;;;;;;;;;;4995323;28;20202;-80
2023/09/16 02:35:53;;;;;;;3.55;2.70;;;;;;;;;;4995242;28;20268;-80
2023/09/16 02:38:20;;;;;;;3.00;2.42;;;;;;;;;;4994441;28;20237;-80
2023/09/16 02:40:48;;;;;;;3.40;2.40;;;;;;;;;;4994905;28;20236;-82
2023/09/16 02:43:15;;;;;;;2.88;2.58;;;;;;;;;;4994822;28;20230;-80
2023/09/16 02:45:43;;;;;;;3.72;2.50;;;;;;;;;;4995407;28;20221;-80
2023/09/16 02:48:10;;;;;;;4.60;2.47;;;;;;;;;;4995077;28;20743;-80
2023/09/16 02:50:38;;;;;;;3.97;2.60;;;;;;;;;;4994991;28;20205;-79
2023/09/16 02:53:07;;;;;;;4.35;2.90;;;;;;;;;;4994247;28;20645;-80
2023/09/16 02:55:35;;;;;;;3.53;2.35;;;;;;;;;;4994669;28;20340;-79
2023/09/16 02:58:02;;;;;;;5.03;2.33;;;;;;;;;;4994578;28;20882;-80
2023/09/16 03:00:29;;;;;;;2.70;2.30;;;;;;;;;;4994623;28;20208;-80
2023/09/16 03:02:57;;;;;;;2.38;2.17;;;;;;;;;;4994629;28;20552;-80
2023/09/16 03:05:24;;;;;;;2.95;2.45;;;;;;;;;;4993772;28;20194;-79
2023/09/16 03:07:52;;;;;;;3.40;2.70;;;;;;;;;;4994256;28;20229;-79
2023/09/16 03:10:20;;;;;;;4.07;2.33;;;;;;;;;;4994698;28;20244;-80
2023/09/16 03:12:48;;;;;;;3.97;2.63;;;;;;;;;;4994512;28;20264;-80
2023/09/16 03:15:15;;;;;;;3.88;2.47;;;;;;;;;;4994323;28;20373;-79
2023/09/16 03:17:42;;;;;;;3.92;2.38;;;;;;;;;;4994216;28;20198;-80
2023/09/16 03:20:09;;;;;;;3.20;2.50;;;;;;;;;;4994379;28;20281;-79
2023/09/16 03:22:37;;;;;;;3.55;2.70;;;;;;;;;;4993898;28;20222;-80
2023/09/16 03:25:04;;;;;;;3.00;2.70;;;;;;;;;;4994479;28;20248;-79
2023/09/16 03:27:33;;;;;;;3.83;2.60;;;;;;;;;;4994014;28;20297;-80
2023/09/16 03:30:00;;;;;;;5.72;3.00;;;;;;;;;;4994152;28;20752;-80
2023/09/16 03:32:29;;;;;;;5.10;2.95;;;;;;;;;;4994186;28;20229;-79
2023/09/16 03:34:56;;;;;;;3.55;2.70;;;;;;;;;;4994272;28;20273;-80
2023/09/16 03:37:23;;;;;;;5.82;2.90;;;;;;;;;;4993677;28;20289;-79
2023/09/16 03:39:50;;;;;;;3.20;2.60;;;;;;;;;;4993612;28;20248;-79
2023/09/16 03:42:18;;;;;;;3.13;2.33;;;;;;;;;;4994180;28;20290;-79
2023/09/16 03:44:47;;;;;;;5.15;2.58;;;;;;;;;;4994065;28;20300;-80
2023/09/16 03:47:14;;;;;;;3.85;2.80;;;;;;;;;;4993903;28;20213;-78
2023/09/16 03:49:41;;;;;;;3.40;2.63;;;;;;;;;;4993894;28;20305;-79
2023/09/16 03:52:08;;;;;;;4.03;2.92;;;;;;;;;;4992776;28;20226;-80
2023/09/16 03:54:36;;;;;;;3.28;2.67;;;;;;;;;;4994176;28;20261;-80
2023/09/16 03:57:03;;;;;;;5.20;2.92;;;;;;;;;;4993522;28;20300;-79
2023/09/16 03:59:30;;;;;;;3.78;2.80;;;;;;;;;;4993514;28;20221;-80
2023/09/16 04:01:58;;;;;;;4.18;3.22;;;;;;;;;;4993653;28;20194;-80
2023/09/16 04:04:26;;;;;;;3.58;2.70;;;;;;;;;;4993372;28;20719;-80
2023/09/16 04:06:53;;;;;;;3.80;2.72;;;;;;;;;;4993562;28;20256;-80
2023/09/16 04:09:20;;;;;;;3.75;2.53;;;;;;;;;;4993515;28;20285;-80
2023/09/16 04:11:47;;;;;;;2.90;2.70;;;;;;;;;;4993471;28;20205;-79
2023/09/16 04:14:14;;;;;;;4.45;3.08;;;;;;;;;;4993132;28;20232;-80
2023/09/16 04:16:43;;;;;;;3.33;2.90;;;;;;;;;;4992768;28;20721;-80
2023/09/16 04:19:12;;;;;;;3.55;2.80;;;;;;;;;;4992938;28;20204;-79
2023/09/16 04:21:39;;;;;;;3.65;2.72;;;;;;;;;;4993112;28;20194;-80
2023/09/16 04:24:07;;;;;;;4.22;2.72;;;;;;;;;;4993292;28;20198;-79
2023/09/16 04:26:34;;;;;;;2.97;2.70;;;;;;;;;;4993026;28;20624;-80
2023/09/16 04:29:01;;;;;;;5.70;3.17;;;;;;;;;;4993213;28;20225;-80
2023/09/16 04:31:29;;;;;;;3.40;2.97;;;;;;;;;;4992918;28;20205;-80
2023/09/16 04:33:57;;;;;;;3.65;2.90;;;;;;;;;;4992424;28;20212;-79
2023/09/16 04:36:25;;;;;;;4.82;2.97;;;;;;;;;;4992710;28;20402;-80
2023/09/16 04:38:52;;;;;;;4.47;3.03;;;;;;;;;;4992816;28;20664;-80
2023/09/16 04:41:21;;;;;;;3.97;2.80;;;;;;;;;;4992668;28;20296;-79
2023/09/16 04:43:49;;;;;;;3.38;3.08;;;;;;;;;;4993219;28;20225;-79
2023/09/16 04:46:18;;;;;;;3.88;3.20;;;;;;;;;;4992187;28;20204;-80
2023/09/16 04:48:45;;;;;;;5.35;3.22;;;;;;;;;;4992369;28;20202;-80
2023/09/16 04:51:12;;;;;;;3.30;3.00;;;;;;;;;;4993189;28;20297;-79
2023/09/16 04:53:41;;;;;;;4.63;3.10;;;;;;;;;;4992471;28;20342;-80
2023/09/16 04:56:09;;;;;;;4.20;2.80;;;;;;;;;;4992764;28;20320;-79
2023/09/16 04:58:36;;;;;;;4.03;3.00;;;;;;;;;;4992651;28;20645;-80
2023/09/16 05:01:04;;;;;;;3.63;3.03;;;;;;;;;;4992205;28;20296;-79
2023/09/16 05:03:32;;;;;;;3.78;2.97;;;;;;;;;;4992531;28;20209;-79
2023/09/16 05:05:59;;;;;;;5.55;3.55;;;;;;;;;;4992411;28;20253;-79
2023/09/16 05:08:26;;;;;;;3.95;3.10;;;;;;;;;;4992339;28;20198;-80
2023/09/16 05:10:55;;;;;;;3.17;2.88;;;;;;;;;;4992187;28;20664;-79
2023/09/16 05:13:23;;;;;;;3.95;3.45;;;;;;;;;;4992131;28;20292;-80
2023/09/16 05:15:52;;;;;;;4.78;3.25;;;;;;;;;;4992522;28;20264;-79
2023/09/16 05:18:19;;;;;;;4.95;3.45;;;;;;;;;;4992033;28;20237;-79
2023/09/16 05:20:46;;;;;;;5.93;3.47;;;;;;;;;;4991716;28;20689;-79
2023/09/16 05:23:14;;;;;;;3.97;3.58;;;;;;;;;;4992393;28;20238;-80
2023/09/16 05:25:46;;;;;;;4.50;3.42;;;;;;;;;;4992411;28;20240;-79
2023/09/16 05:28:14;;;;;;;3.88;3.45;;;;;;;;;;4991850;28;20204;-79
2023/09/16 05:30:42;;;;;;;4.38;3.50;;;;;;;;;;4992156;28;20221;-79
2023/09/16 05:33:10;;;;;;;3.90;3.58;;;;;;;;;;4991620;28;20293;-80
2023/09/16 05:35:37;;;;;;;3.97;3.30;;;;;;;;;;4991505;28;20712;-79
2023/09/16 05:38:05;;;;;;;4.20;3.55;;;;;;;;;;4991827;28;20213;-80
2023/09/16 05:40:32;;;;;;;4.05;3.65;;;;;;;;;;4991389;28;20317;-80
2023/09/16 05:42:59;;;;;;;3.67;3.25;;;;;;;;;;4991852;28;20237;-79
2023/09/16 05:45:28;;;;;;;6.03;3.92;;;;;;;;;;4991704;28;20301;-79
2023/09/16 05:47:55;;;;;;;4.45;3.70;;;;;;;;;;4991797;28;20194;-79
2023/09/16 05:50:23;;;;;;;6.07;4.15;;;;;;;;;;4992022;28;20205;-79
2023/09/16 05:52:50;;;;;;;5.13;4.07;;;;;;;;;;4991790;28;20324;-79
2023/09/16 05:55:17;;;;;;;4.35;3.75;;;;;;;;;;4991940;28;20759;-80
2023/09/16 05:57:44;;;;;;;3.92;3.30;;;;;;;;;;4991524;28;20300;-79
2023/09/16 06:00:12;;;;;;;5.40;3.28;;;;;;;;;;4992326;28;20201;-79
2023/09/16 06:02:40;;;;;;;5.07;3.60;;;;;;;;;;4991375;28;20293;-79
2023/09/16 06:05:08;;;;;;;4.13;3.50;;;;;;;;;;4992745;28;21015;-79
2023/09/16 06:07:36;;;;;;;5.40;3.90;;;;;;;;;;4991682;28;20202;-79
2023/09/16 06:10:04;;;;;;;5.72;3.92;;;;;;;;;;4991960;28;20284;-80
2023/09/16 06:12:31;;;;;;;5.57;3.90;;;;;;;;;;4991997;28;20234;-80
2023/09/16 06:14:58;;;;;;;3.95;3.47;;;;;;;;;;4990980;28;20202;-79
2023/09/16 06:17:25;;;;;;;6.63;3.92;;;;;;;;;;4986927;28;20253;-80
2023/09/16 06:19:55;;;;;;;3.95;3.55;;;;;;;;;;4994221;28;20233;-81
2023/09/16 06:22:22;;;;;;;4.30;3.58;;;;;;;;;;4989131;28;20233;-82
2023/09/16 06:24:49;;;;;;;4.20;3.42;;;;;;;;;;4980420;28;20298;-79
2023/09/16 06:27:17;;;;;;;4.90;3.53;;;;;;;;;;4972032;28;20203;-79
2023/09/16 06:29:46;;;;;;;4.00;3.60;;;;;;;;;;4971784;28;20261;-79
2023/09/16 06:32:14;;;;;;;4.20;3.72;;;;;;;;;;4973076;28;20260;-79
2023/09/16 06:34:41;;;;;;;6.18;3.60;;;;;;;;;;4972230;28;20195;-78
2023/09/16 06:37:10;;;;;;;5.00;3.53;;;;;;;;;;4972411;28;20321;-79
2023/09/16 06:39:39;;;;;;;5.05;3.80;;;;;;;;;;4973799;28;20222;-79
2023/09/16 06:42:07;;;;;;;4.20;3.80;;;;;;;;;;4975768;28;20226;-79
2023/09/16 06:44:34;;;;;;;5.60;3.90;;;;;;;;;;4975270;28;20270;-80
2023/09/16 06:47:01;;;;;;;4.10;3.75;;;;;;;;;;4976439;28;20229;-79
2023/09/16 06:49:28;;;;;;;7.65;3.85;;;;;;;;;;4975478;28;20286;-79
2023/09/16 06:51:55;;;;;;;5.35;3.47;;;;;;;;;;4975097;28;20293;-79
2023/09/16 06:54:24;;;;;;;7.72;3.70;;;;;;;;;;4975881;28;20325;-79
2023/09/16 06:56:51;;;;;;;5.65;3.42;;;;;;;;;;4983829;28;20316;-80
2023/09/16 06:59:18;;;;;;;4.38;3.47;;;;;;;;;;4979006;28;20297;-80
2023/09/16 07:01:45;;;;;;;6.00;3.85;;;;;;;;;;4976119;28;20238;-81
2023/09/16 07:04:13;;;;;;;4.20;3.50;;;;;;;;;;4975183;28;20293;-79
2023/09/16 07:06:40;;;;;;;4.90;3.75;;;;;;;;;;4975238;28;20661;-80
2023/09/16 07:09:07;;;;;;;4.75;3.65;;;;;;;;;;4975371;28;20659;-79
2023/09/16 07:11:36;;;;;;;5.15;3.67;;;;;;;;;;4975234;28;20218;-79
2023/09/16 07:14:03;;;;;;;6.70;3.72;;;;;;;;;;4975034;28;20201;-80
2023/09/16 07:16:38;;;;;;;6.43;3.60;;;;;;;;;;4975534;28;20226;-80
2023/09/16 07:19:05;;;;;;;5.45;3.30;;;;;;;;;;4993053;28;20240;-80
2023/09/16 07:21:32;;;;;;;4.07;3.65;;;;;;;;;;4643943;28;10000324;-79
2023/09/16 07:24:01;;;;;;;7.85;3.60;;;;;;;;;;4990949;28;20198;-79
2023/09/16 07:26:28;;;;;;;7.47;3.88;;;;;;;;;;4993811;28;20585;-81
2023/09/16 07:28:58;;;;;;;3.83;3.50;;;;;;;;;;4995447;28;20233;-81
2023/09/16 07:31:25;;;;;;;4.13;3.45;;;;;;;;;;4975318;28;20712;-82
2023/09/16 07:33:53;;;;;;;5.53;4.00;;;;;;;;;;4995735;28;20296;-82
2023/09/16 07:36:20;;;;;;;4.00;3.55;;;;;;;;;;4998916;28;20278;-82
2023/09/16 07:38:49;;;;;;;4.40;3.30;;;;;;;;;;4992456;28;20404;-81
2023/09/16 07:41:16;;;;;;;5.85;3.25;;;;;;;;;;4994446;28;20847;-82
2023/09/16 07:43:44;;;;;;;4.95;3.88;;;;;;;;;;4994516;28;20198;-81
2023/09/16 07:46:12;;;;;;;4.22;3.65;;;;;;;;;;4994761;28;20528;-81
2023/09/16 07:48:39;;;;;;;7.68;3.70;;;;;;;;;;4995177;28;20235;-78
2023/09/16 07:51:07;;;;;;;4.82;3.33;;;;;;;;;;4992275;28;20245;-81
2023/09/16 07:53:34;;;;;;;6.88;3.88;;;;;;;;;;4993835;28;20243;-81
2023/09/16 07:56:01;;;;;;;5.32;3.65;;;;;;;;;;4993772;28;20240;-81
2023/09/16 07:58:30;;;;;;;8.27;3.90;;;;;;;;;;4993303;28;20248;-81
2023/09/16 08:00:57;;;;;;;5.65;3.65;;;;;;;;;;5001172;28;20233;-82
2023/09/16 08:03:25;;;;;;;4.10;3.40;;;;;;;;;;4994101;28;20237;-82
2023/09/16 08:05:53;;;;;;;4.85;3.45;;;;;;;;;;4998613;28;20649;-80
2023/09/16 08:08:20;;;;;;;3.95;3.55;;;;;;;;;;4994958;28;20225;-82
2023/09/16 08:10:50;;;;;;;4.53;3.40;;;;;;;;;;5001349;28;20771;-81
2023/09/16 08:13:17;;;;;;;4.63;3.55;;;;;;;;;;5004498;28;20236;-81
2023/09/16 08:15:44;;;;;;;5.18;3.20;;;;;;;;;;4996427;28;20205;-80
2023/09/16 08:18:11;;;;;;;7.70;3.72;;;;;;;;;;5002589;28;20201;-81
2023/09/16 08:20:40;;;;;;;7.93;3.40;;;;;;;;;;4999324;28;20640;-84
2023/09/16 08:23:09;;;;;;;4.65;3.65;;;;;;;;;;5013988;28;20229;-84
2023/09/16 08:25:36;;;;;;;4.50;3.70;;;;;;;;;;5001044;28;20198;-83
2023/09/16 08:28:04;;;;;;;3.75;3.33;;;;;;;;;;4994182;28;20207;-82
2023/09/16 08:30:31;;;;;;;5.13;3.50;;;;;;;;;;4976841;28;20289;-82
2023/09/16 08:32:58;;;;;;;3.83;3.53;;;;;;;;;;4992611;28;20256;-83
2023/09/16 08:35:26;;;;;;;7.57;4.05;;;;;;;;;;4999130;28;20293;-88
2023/09/16 08:37:58;;;;;;;6.15;3.85;;;;;;;;;;4996221;28;20230;-87
2023/09/16 08:40:29;;;;;;;5.47;3.78;;;;;;;;;;4995449;28;20983;-88
2023/09/16 08:43:02;;;;;;;8.40;3.60;;;;;;;;;;4995332;28;20289;-89
2023/09/16 08:45:32;;;;;;;5.13;3.50;;;;;;;;;;4991300;28;20305;-89
2023/09/16 08:48:02;;;;;;;4.90;3.28;;;;;;;;;;4980917;28;20214;-88
2023/09/16 08:50:30;;;;;;;4.35;3.28;;;;;;;;;;4996525;28;20195;-85
2023/09/16 08:53:04;;;;;;;7.82;3.50;;;;;;;;;;5005138;28;20323;-86
2023/09/16 08:55:34;;;;;;;4.15;2.88;;;;;;;;;;4999977;28;20208;-86
2023/09/16 08:58:04;;;;;;;3.33;3.03;;;;;;;;;;4993817;28;20229;-88
2023/09/16 09:00:32;;;;;;;3.63;3.20;;;;;;;;;;4976660;28;20233;-89
2023/09/16 09:02:59;;;;;;;7.88;3.60;;;;;;;;;;5001343;28;20205;-91
2023/09/16 09:05:27;;;;;;;5.70;3.85;;;;;;;;;;5011162;28;20702;-90
2023/09/16 09:07:54;;;;;;;3.92;3.40;;;;;;;;;;4994986;28;20296;-87
2023/09/16 09:10:23;;;;;;;6.50;3.85;;;;;;;;;;4991898;28;20289;-87
2023/09/16 09:12:53;;;;;;;6.50;3.70;;;;;;;;;;4995600;28;20229;-89
2023/09/16 09:15:20;;;;;;;6.45;3.95;;;;;;;;;;4995855;28;20221;-88
2023/09/16 09:17:50;;;;;;;3.97;3.22;;;;;;;;;;4988033;28;20271;-88
2023/09/16 09:20:20;;;;;;;5.13;3.90;;;;;;;;;;4978230;28;20667;-89
2023/09/16 09:22:49;;;;;;;7.13;4.05;;;;;;;;;;4988208;28;20237;-84
2023/09/16 09:25:16;;;;;;;5.13;3.83;;;;;;;;;;5000443;28;20233;-86
2023/09/16 09:27:45;;;;;;;7.93;4.22;;;;;;;;;;5014415;28;20233;-87
2023/09/16 09:30:12;;;;;;;6.30;3.90;;;;;;;;;;5017222;28;20197;-88
2023/09/16 09:32:44;;;;;;;8.48;4.50;;;;;;;;;;5017900;28;20220;-87
2023/09/16 09:35:12;;;;;;;10.40;5.05;;;;;;;;;;5016776;28;20204;-85
2023/09/16 09:37:40;;;;;;;8.48;4.60;;;;;;;;;;5002961;28;20229;-85
2023/09/16 09:40:08;;;;;;;6.68;4.93;;;;;;;;;;4993907;28;20202;-86
2023/09/16 09:42:40;;;;;;;6.57;5.38;;;;;;;;;;4999838;28;20304;-84
2023/09/16 09:45:09;;;;;;;7.15;5.32;;;;;;;;;;4993043;28;20229;-84
2023/09/16 09:47:37;;;;;;;7.72;5.40;;;;;;;;;;4992094;28;20209;-83
2023/09/16 09:50:04;;;;;;;10.43;5.72;;;;;;;;;;4994958;28;20718;-83
2023/09/16 09:52:32;;;;;;;7.05;5.70;;;;;;;;;;5013099;28;20232;-88
2023/09/16 09:55:00;;;;;;;7.80;5.47;;;;;;;;;;5013807;28;20295;-87
2023/09/16 09:57:28;;;;;;;9.32;5.05;;;;;;;;;;5013347;28;20719;-84
2023/09/16 09:59:56;;;;;;;5.97;5.38;;;;;;;;;;5011777;28;20200;-83
2023/09/16 10:02:26;;;;;;;7.88;5.50;;;;;;;;;;5012975;28;20235;-84
2023/09/16 10:04:58;;;;;;;8.48;5.57;;;;;;;;;;4993680;28;20202;-84
2023/09/16 10:07:25;;;;;;;9.10;5.20;;;;;;;;;;4992445;28;20241;-84
2023/09/16 10:09:53;;;;;;;9.13;5.50;;;;;;;;;;4992858;28;20206;-84
2023/09/16 10:12:20;;;;;;;6.22;5.07;;;;;;;;;;4992204;28;20201;-86
2023/09/16 10:14:47;;;;;;;7.32;5.03;;;;;;;;;;4989108;28;20248;-87
2023/09/16 10:17:15;;;;;;;5.78;4.40;;;;;;;;;;4997710;28;20297;-83
2023/09/16 10:19:44;;;;;;;5.03;4.35;;;;;;;;;;4993947;28;20674;-89
2023/09/16 10:22:11;;;;;;;5.60;4.15;;;;;;;;;;5000001;28;20206;-88
2023/09/16 10:24:40;;;;;;;5.55;4.50;;;;;;;;;;5017833;28;20197;-88
2023/09/16 10:27:10;;;;;;;8.27;5.10;;;;;;;;;;5017218;28;20284;-87
2023/09/16 10:29:39;;;;;;;8.48;5.47;;;;;;;;;;5001953;28;20217;-88
2023/09/16 10:32:07;;;;;;;11.82;6.15;;;;;;;;;;5001817;28;20224;-88
2023/09/16 10:34:34;;;;;;;7.82;5.10;;;;;;;;;;4998882;28;20198;-86
2023/09/16 10:37:03;;;;;;;6.47;5.25;;;;;;;;;;4990555;28;20226;-87
2023/09/16 10:39:33;;;;;;;7.38;5.38;;;;;;;;;;4992611;28;20209;-89
2023/09/16 10:42:01;;;;;;;10.13;4.82;;;;;;;;;;4976845;28;20280;-88
2023/09/16 10:44:30;;;;;;;8.82;5.05;;;;;;;;;;4984830;28;20301;-88
2023/09/16 10:46:58;;;;;;;5.43;4.43;;;;;;;;;;4992423;28;20649;-88
2023/09/16 10:49:25;;;;;;;7.10;4.13;;;;;;;;;;4997980;28;20186;-88
2023/09/16 10:51:54;;;;;;;4.95;4.30;;;;;;;;;;4996878;28;20294;-89
2023/09/16 10:54:31;;;;;;;8.48;4.82;;;;;;;;;;4997228;28;20261;-88
2023/09/16 10:57:01;;;;;;;5.28;4.78;;;;;;;;;;4999985;28;20313;-88
2023/09/16 10:59:30;;;;;;;7.35;5.13;;;;;;;;;;4992424;28;20228;-88
2023/09/16 11:01:59;;;;;;;8.60;4.85;;;;;;;;;;5010127;28;20203;-88
2023/09/16 11:04:26;;;;;;;5.53;4.40;;;;;;;;;;5012682;28;20668;-86
2023/09/16 11:06:53;;;;;;;8.13;4.70;;;;;;;;;;4996437;28;20293;-87
2023/09/16 11:09:21;;;;;;;6.38;4.40;;;;;;;;;;4994434;28;20634;-87
2023/09/16 11:11:50;;;;;;;5.40;4.50;;;;;;;;;;4996517;28;20248;-85
2023/09/16 11:14:17;;;;;;;6.78;4.50;;;;;;;;;;5012634;28;20228;-87
2023/09/16 11:16:45;;;;;;;4.88;4.40;;;;;;;;;;4996382;28;20225;-83
2023/09/16 11:19:15;;;;;;;6.50;4.40;;;;;;;;;;4996805;28;20281;-89
2023/09/16 11:21:43;;;;;;;6.28;4.65;;;;;;;;;;4997045;28;20578;-85
2023/09/16 11:24:10;;;;;;;6.13;4.50;;;;;;;;;;5006474;28;20268;-90
2023/09/16 11:26:37;;;;;;;6.18;4.50;;;;;;;;;;4999417;28;20297;-88
2023/09/16 11:29:16;;;;;;;4.35;3.78;;;;;;;;;;4998339;28;20201;-90
2023/09/16 11:31:43;;;;;;;5.20;3.83;;;;;;;;;;4983878;28;20202;-90
2023/09/16 11:34:12;;;;;;;4.25;3.85;;;;;;;;;;4985928;28;20273;-89
2023/09/16 11:36:43;;;;;;;4.32;3.33;;;;;;;;;;5001595;28;20204;-88
2023/09/16 11:39:15;;;;;;;4.97;3.30;;;;;;;;;;4996778;28;20221;-87
2023/09/16 11:41:43;;;;;;;5.03;3.30;;;;;;;;;;5008513;28;20296;-89
2023/09/16 11:44:10;;;;;;;4.85;3.67;;;;;;;;;;5017643;28;20201;-87
2023/09/16 11:46:39;;;;;;;5.55;3.88;;;;;;;;;;5021965;28;20237;-87
2023/09/16 11:49:07;;;;;;;3.75;3.42;;;;;;;;;;4995711;28;20248;-87
2023/09/16 11:51:35;;;;;;;6.85;5.55;;;;;;;;;;4996786;28;20285;-89
2023/09/16 11:54:02;;;;;;;8.50;6.00;;;;;;;;;;5001773;28;20740;-89
2023/09/16 11:56:31;;;;;;;4.50;4.10;;;;;;;;;;4998119;28;20208;-89
2023/09/16 11:58:59;;;;;;;4.95;3.55;;;;;;;;;;5016360;28;20707;-89
2023/09/16 12:01:29;;;;;;;14.23;12.55;;;;;;;;;;5015647;28;20228;-87
2023/09/16 12:03:57;;;;;;;8.77;6.38;;;;;;;;;;4999900;28;20744;-89
2023/09/16 12:06:26;;;;;;;5.75;5.13;;;;;;;;;;4996972;28;20221;-88
2023/09/16 12:08:55;;;;;;;4.93;4.43;;;;;;;;;;5001200;28;20255;-91
2023/09/16 12:11:23;;;;;;;4.63;4.22;;;;;;;;;;5016886;28;20672;-88
2023/09/16 12:13:50;;;;;;;5.18;4.53;;;;;;;;;;5000109;28;20649;-92
2023/09/16 12:16:17;;;;;;;6.07;4.47;;;;;;;;;;4977042;28;20294;-89
2023/09/16 12:18:45;;;;;;;6.50;4.68;;;;;;;;;;4995741;28;20316;-85
2023/09/16 12:21:13;;;;;;;4.70;4.30;;;;;;;;;;5008020;28;20264;-90
2023/09/16 12:23:41;;;;;;;4.82;4.38;;;;;;;;;;5006400;28;20232;-86
2023/09/16 12:26:09;;;;;;;6.03;5.00;;;;;;;;;;4997874;28;20222;-88
2023/09/16 12:28:36;;;;;;;11.80;5.15;;;;;;;;;;4990414;28;20198;-87
2023/09/16 12:31:08;;;;;;;4.93;4.43;;;;;;;;;;4995377;28;21265;-89
2023/09/16 12:33:39;;;;;;;5.68;4.47;;;;;;;;;;4995892;28;20205;-90
2023/09/16 12:36:07;;;;;;;6.45;5.82;;;;;;;;;;5009875;28;20692;-91
2023/09/16 12:38:36;;;;;;;5.80;5.20;;;;;;;;;;4996188;28;20225;-91
2023/09/16 12:41:04;;;;;;;7.85;6.95;;;;;;;;;;4980408;28;20208;-88
2023/09/16 12:43:31;;;;;;;5.68;5.07;;;;;;;;;;4996026;28;20256;-88
2023/09/16 12:45:59;;;;;;;8.50;4.60;;;;;;;;;;4995868;28;20293;-89
2023/09/16 12:48:27;;;;;;;8.57;4.80;;;;;;;;;;4995991;28;20232;-89
2023/09/16 12:50:56;;;;;;;4.65;4.13;;;;;;;;;;4987244;28;20695;-88
2023/09/16 12:53:25;;;;;;;6.97;4.00;;;;;;;;;;4986805;28;20237;-86
2023/09/16 12:55:54;;;;;;;5.60;4.32;;;;;;;;;;5003600;28;20236;-87
2023/09/16 12:58:22;;;;;;;7.38;4.20;;;;;;;;;;4996526;28;20284;-90
2023/09/16 13:00:50;;;;;;;5.32;4.10;;;;;;;;;;4995240;28;20205;-89
2023/09/16 13:03:17;;;;;;;4.40;4.00;;;;;;;;;;5011180;28;20295;-87
2023/09/16 13:05:44;;;;;;;4.85;3.90;;;;;;;;;;5003016;28;20225;-87
2023/09/16 13:08:12;;;;;;;5.68;3.55;;;;;;;;;;4994768;28;20284;-85
2023/09/16 13:10:39;;;;;;;4.57;3.90;;;;;;;;;;4996517;28;20198;-86
2023/09/16 13:13:08;;;;;;;4.28;3.88;;;;;;;;;;4990178;28;20772;-87
2023/09/16 13:15:36;;;;;;;5.78;4.60;;;;;;;;;;4987763;28;20280;-90
2023/09/16 13:18:04;;;;;;;5.45;4.60;;;;;;;;;;4994797;28;20226;-84
2023/09/16 13:20:35;;;;;;;5.00;4.15;;;;;;;;;;5011358;28;20201;-86
2023/09/16 13:23:03;;;;;;;9.05;6.18;;;;;;;;;;4995595;28;20252;-89
2023/09/16 13:25:32;;;;;;;5.75;5.07;;;;;;;;;;4997113;28;20277;-88
2023/09/16 13:28:11;;;;;;;6.43;4.93;;;;;;;;;;4978190;28;20187;-89
2023/09/16 13:30:38;;;;;;;6.45;5.40;;;;;;;;;;4976224;28;20218;-87
2023/09/16 13:33:06;;;;;;;6.38;4.50;;;;;;;;;;4992535;28;20637;-91
2023/09/16 13:35:35;;;;;;;7.53;5.45;;;;;;;;;;5016336;28;20235;-92
2023/09/16 13:38:03;;;;;;;6.32;5.32;;;;;;;;;;5005961;28;20253;-92
2023/09/16 13:40:30;;;;;;;4.97;4.25;;;;;;;;;;4996073;28;20201;-90
2023/09/16 13:42:58;;;;;;;5.40;4.40;;;;;;;;;;4995000;28;20849;-88
2023/09/16 13:45:27;;;;;;;5.20;4.50;;;;;;;;;;5013647;28;20201;-90
2023/09/16 13:48:11;;;;;;;6.45;5.85;;;;;;;;;;5012488;28;20243;-89
2023/09/16 13:50:40;;;;;;;6.00;4.93;;;;;;;;;;5003349;28;20190;-86
2023/09/16 13:53:07;;;;;;;5.85;5.25;;;;;;;;;;4994773;28;20263;-89
2023/09/16 13:55:34;;;;;;;4.88;4.40;;;;;;;;;;5015830;28;20236;-88
2023/09/16 13:58:02;;;;;;;6.90;5.15;;;;;;;;;;5003159;28;20276;-93
2023/09/16 14:00:31;;;;;;;5.45;4.95;;;;;;;;;;4976985;28;20289;-93
2023/09/16 14:02:58;;;;;;;5.55;4.95;;;;;;;;;;4961229;28;20213;-92
2023/09/16 14:05:26;;;;;;;11.63;5.30;;;;;;;;;;4986478;28;20273;-91
2023/09/16 14:07:54;;;;;;;5.78;4.85;;;;;;;;;;5003882;28;20228;-87
2023/09/16 14:10:24;;;;;;;6.60;5.20;;;;;;;;;;5016533;28;20193;-91
2023/09/16 14:12:52;;;;;;;6.05;4.93;;;;;;;;;;4974802;28;20237;-89
2023/09/16 14:15:20;;;;;;;5.55;4.25;;;;;;;;;;4975064;28;20223;-89
2023/09/16 14:17:49;;;;;;;23.98;18.50;;;;;;;;;;4976495;28;20226;-88
2023/09/16 14:20:16;;;;;;;7.28;6.57;;;;;;;;;;4975802;28;20234;-90
2023/09/16 14:22:44;;;;;;;8.43;5.25;;;;;;;;;;4980279;28;20240;-90
2023/09/16 14:25:11;;;;;;;5.47;4.82;;;;;;;;;;5012884;28;20676;-88
2023/09/16 14:27:39;;;;;;;4.72;4.25;;;;;;;;;;5014062;28;20648;-89
2023/09/16 14:30:07;;;;;;;6.30;4.72;;;;;;;;;;5014139;28;20225;-89
2023/09/16 14:32:34;;;;;;;6.85;4.90;;;;;;;;;;5014584;28;20232;-91
2023/09/16 14:35:03;;;;;;;7.53;4.97;;;;;;;;;;5015374;28;20252;-87
2023/09/16 14:37:30;;;;;;;6.68;4.65;;;;;;;;;;5000109;28;20264;-88
2023/09/16 14:39:57;;;;;;;5.85;5.20;;;;;;;;;;5001394;28;20638;-90
2023/09/16 14:42:24;;;;;;;6.10;5.50;;;;;;;;;;5014907;28;20251;-94
2023/09/16 14:44:52;;;;;;;6.90;5.07;;;;;;;;;;5015022;28;20209;-91
2023/09/16 14:47:19;;;;;;;6.40;5.30;;;;;;;;;;5013642;28;20197;-92